sensor_id;sensor_type;location;lat;lon;timestamp;P1;durP1;ratioP1;P2;durP2;ratioP2
787;SDS011;16074;42.708;23.312;2023-07-30T00:00:43;5.73;;;5.20;;
787;SDS011;16074;42.708;23.312;2023-07-30T00:03:12;5.10;;;4.70;;
787;SDS011;16074;42.708;23.312;2023-07-30T00:05:40;4.83;;;4.53;;
787;SDS011;16074;42.708;23.312;2023-07-30T00:08:08;6.67;;;5.60;;
787;SDS011;16074;42.708;23.312;2023-07-30T00:10:38;5.00;;;4.60;;
787;SDS011;16074;42.708;23.312;2023-07-30T00:13:07;5.40;;;5.00;;
787;SDS011;16074;42.708;23.312;2023-07-30T00:15:35;5.93;;;5.43;;
787;SDS011;16074;42.708;23.312;2023-07-30T00:18:03;5.40;;;5.10;;
787;SDS011;16074;42.708;23.312;2023-07-30T00:20:33;5.60;;;5.20;;
787;SDS011;16074;42.708;23.312;2023-07-30T00:23:02;5.33;;;4.93;;
787;SDS011;16074;42.708;23.312;2023-07-30T00:25:30;5.93;;;5.53;;
787;SDS011;16074;42.708;23.312;2023-07-30T00:28:00;5.50;;;5.10;;
787;SDS011;16074;42.708;23.312;2023-07-30T00:30:28;6.00;;;5.43;;
787;SDS011;16074;42.708;23.312;2023-07-30T00:32:56;5.63;;;5.23;;
787;SDS011;16074;42.708;23.312;2023-07-30T00:35:25;5.07;;;4.70;;
787;SDS011;16074;42.708;23.312;2023-07-30T00:37:53;5.20;;;4.80;;
787;SDS011;16074;42.708;23.312;2023-07-30T00:40:22;5.80;;;4.77;;
787;SDS011;16074;42.708;23.312;2023-07-30T00:42:51;5.60;;;5.20;;
787;SDS011;16074;42.708;23.312;2023-07-30T00:45:20;6.07;;;5.77;;
787;SDS011;16074;42.708;23.312;2023-07-30T00:47:49;5.73;;;5.43;;
787;SDS011;16074;42.708;23.312;2023-07-30T00:50:17;5.50;;;5.13;;
787;SDS011;16074;42.708;23.312;2023-07-30T00:52:46;5.90;;;5.50;;
787;SDS011;16074;42.708;23.312;2023-07-30T00:55:14;5.77;;;5.37;;
787;SDS011;16074;42.708;23.312;2023-07-30T00:57:44;6.20;;;5.80;;
787;SDS011;16074;42.708;23.312;2023-07-30T01:00:13;6.70;;;6.20;;
787;SDS011;16074;42.708;23.312;2023-07-30T01:02:43;7.60;;;6.90;;
787;SDS011;16074;42.708;23.312;2023-07-30T01:05:12;5.20;;;4.90;;
787;SDS011;16074;42.708;23.312;2023-07-30T01:07:40;5.17;;;4.73;;
787;SDS011;16074;42.708;23.312;2023-07-30T01:10:08;5.30;;;5.00;;
787;SDS011;16074;42.708;23.312;2023-07-30T01:12:37;6.43;;;5.40;;
787;SDS011;16074;42.708;23.312;2023-07-30T01:15:07;4.93;;;4.43;;
787;SDS011;16074;42.708;23.312;2023-07-30T01:17:37;5.67;;;5.27;;
787;SDS011;16074;42.708;23.312;2023-07-30T01:20:07;5.17;;;4.83;;
787;SDS011;16074;42.708;23.312;2023-07-30T01:22:39;4.90;;;4.53;;
787;SDS011;16074;42.708;23.312;2023-07-30T01:25:07;5.63;;;5.23;;
787;SDS011;16074;42.708;23.312;2023-07-30T01:27:37;5.90;;;5.00;;
787;SDS011;16074;42.708;23.312;2023-07-30T01:30:10;6.90;;;5.27;;
787;SDS011;16074;42.708;23.312;2023-07-30T01:32:49;5.23;;;4.83;;
787;SDS011;16074;42.708;23.312;2023-07-30T01:35:19;5.00;;;4.60;;
787;SDS011;16074;42.708;23.312;2023-07-30T01:37:50;4.80;;;4.50;;
787;SDS011;16074;42.708;23.312;2023-07-30T01:40:19;5.50;;;5.20;;
787;SDS011;16074;42.708;23.312;2023-07-30T01:42:48;4.90;;;4.50;;
787;SDS011;16074;42.708;23.312;2023-07-30T01:45:18;5.40;;;4.97;;
787;SDS011;16074;42.708;23.312;2023-07-30T01:47:46;5.33;;;4.97;;
787;SDS011;16074;42.708;23.312;2023-07-30T01:50:15;5.30;;;4.90;;
787;SDS011;16074;42.708;23.312;2023-07-30T01:52:43;5.47;;;5.07;;
787;SDS011;16074;42.708;23.312;2023-07-30T01:55:12;5.17;;;4.77;;
787;SDS011;16074;42.708;23.312;2023-07-30T01:57:41;5.40;;;4.90;;
787;SDS011;16074;42.708;23.312;2023-07-30T02:00:09;6.50;;;4.60;;
787;SDS011;16074;42.708;23.312;2023-07-30T02:02:39;5.47;;;5.07;;
787;SDS011;16074;42.708;23.312;2023-07-30T02:05:07;5.50;;;5.10;;
787;SDS011;16074;42.708;23.312;2023-07-30T02:07:36;5.30;;;4.97;;
787;SDS011;16074;42.708;23.312;2023-07-30T02:10:05;5.33;;;5.03;;
787;SDS011;16074;42.708;23.312;2023-07-30T02:12:35;6.33;;;5.83;;
787;SDS011;16074;42.708;23.312;2023-07-30T02:15:04;4.83;;;4.53;;
787;SDS011;16074;42.708;23.312;2023-07-30T02:17:33;5.27;;;4.93;;
787;SDS011;16074;42.708;23.312;2023-07-30T02:20:01;5.73;;;5.23;;
787;SDS011;16074;42.708;23.312;2023-07-30T02:22:30;4.73;;;4.43;;
787;SDS011;16074;42.708;23.312;2023-07-30T02:24:59;5.87;;;5.27;;
787;SDS011;16074;42.708;23.312;2023-07-30T02:27:28;5.40;;;5.00;;
787;SDS011;16074;42.708;23.312;2023-07-30T02:29:57;4.73;;;4.40;;
787;SDS011;16074;42.708;23.312;2023-07-30T02:32:26;4.90;;;4.60;;
787;SDS011;16074;42.708;23.312;2023-07-30T02:34:55;6.33;;;5.90;;
787;SDS011;16074;42.708;23.312;2023-07-30T02:37:24;5.30;;;4.90;;
787;SDS011;16074;42.708;23.312;2023-07-30T02:39:52;5.60;;;5.30;;
787;SDS011;16074;42.708;23.312;2023-07-30T02:42:20;5.20;;;4.80;;
787;SDS011;16074;42.708;23.312;2023-07-30T02:44:49;5.60;;;5.20;;
787;SDS011;16074;42.708;23.312;2023-07-30T02:47:18;5.10;;;4.80;;
787;SDS011;16074;42.708;23.312;2023-07-30T02:49:46;5.40;;;5.00;;
787;SDS011;16074;42.708;23.312;2023-07-30T02:52:15;5.60;;;5.17;;
787;SDS011;16074;42.708;23.312;2023-07-30T02:54:43;5.90;;;5.40;;
787;SDS011;16074;42.708;23.312;2023-07-30T02:57:11;5.47;;;5.13;;
787;SDS011;16074;42.708;23.312;2023-07-30T02:59:39;5.10;;;4.80;;
787;SDS011;16074;42.708;23.312;2023-07-30T03:02:08;5.07;;;4.77;;
787;SDS011;16074;42.708;23.312;2023-07-30T03:04:37;5.20;;;4.90;;
787;SDS011;16074;42.708;23.312;2023-07-30T03:07:06;5.70;;;5.30;;
787;SDS011;16074;42.708;23.312;2023-07-30T03:09:34;5.43;;;5.03;;
787;SDS011;16074;42.708;23.312;2023-07-30T03:12:03;5.40;;;5.07;;
787;SDS011;16074;42.708;23.312;2023-07-30T03:14:31;5.03;;;4.73;;
787;SDS011;16074;42.708;23.312;2023-07-30T03:17:00;5.97;;;5.47;;
787;SDS011;16074;42.708;23.312;2023-07-30T03:19:28;5.77;;;5.37;;
787;SDS011;16074;42.708;23.312;2023-07-30T03:21:58;5.70;;;5.30;;
787;SDS011;16074;42.708;23.312;2023-07-30T03:24:27;4.90;;;4.57;;
787;SDS011;16074;42.708;23.312;2023-07-30T03:26:56;5.67;;;5.27;;
787;SDS011;16074;42.708;23.312;2023-07-30T03:29:24;5.40;;;5.10;;
787;SDS011;16074;42.708;23.312;2023-07-30T03:31:52;5.30;;;5.00;;
787;SDS011;16074;42.708;23.312;2023-07-30T03:34:20;5.77;;;5.27;;
787;SDS011;16074;42.708;23.312;2023-07-30T03:36:49;5.30;;;5.00;;
787;SDS011;16074;42.708;23.312;2023-07-30T03:39:18;5.77;;;5.27;;
787;SDS011;16074;42.708;23.312;2023-07-30T03:41:47;5.50;;;5.17;;
787;SDS011;16074;42.708;23.312;2023-07-30T03:44:15;5.67;;;5.20;;
787;SDS011;16074;42.708;23.312;2023-07-30T03:46:43;5.23;;;4.73;;
787;SDS011;16074;42.708;23.312;2023-07-30T03:49:12;5.70;;;5.30;;
787;SDS011;16074;42.708;23.312;2023-07-30T03:51:40;6.30;;;5.77;;
787;SDS011;16074;42.708;23.312;2023-07-30T03:54:08;6.30;;;5.10;;
787;SDS011;16074;42.708;23.312;2023-07-30T03:56:38;6.03;;;5.60;;
787;SDS011;16074;42.708;23.312;2023-07-30T03:59:07;5.50;;;5.00;;
787;SDS011;16074;42.708;23.312;2023-07-30T04:01:36;5.93;;;5.53;;
787;SDS011;16074;42.708;23.312;2023-07-30T04:04:05;6.53;;;5.70;;
787;SDS011;16074;42.708;23.312;2023-07-30T04:06:33;5.87;;;5.37;;
787;SDS011;16074;42.708;23.312;2023-07-30T04:09:01;5.67;;;5.30;;
787;SDS011;16074;42.708;23.312;2023-07-30T04:11:30;6.33;;;5.90;;
787;SDS011;16074;42.708;23.312;2023-07-30T04:13:59;7.67;;;6.17;;
787;SDS011;16074;42.708;23.312;2023-07-30T04:16:28;5.87;;;5.47;;
787;SDS011;16074;42.708;23.312;2023-07-30T04:18:56;5.63;;;5.23;;
787;SDS011;16074;42.708;23.312;2023-07-30T04:21:24;5.80;;;5.40;;
787;SDS011;16074;42.708;23.312;2023-07-30T04:23:53;6.70;;;6.20;;
787;SDS011;16074;42.708;23.312;2023-07-30T04:26:21;6.20;;;5.70;;
787;SDS011;16074;42.708;23.312;2023-07-30T04:28:49;6.80;;;6.13;;
787;SDS011;16074;42.708;23.312;2023-07-30T04:31:19;6.87;;;6.37;;
787;SDS011;16074;42.708;23.312;2023-07-30T04:33:47;6.53;;;6.13;;
787;SDS011;16074;42.708;23.312;2023-07-30T04:36:16;6.73;;;6.30;;
787;SDS011;16074;42.708;23.312;2023-07-30T04:38:47;7.03;;;6.43;;
787;SDS011;16074;42.708;23.312;2023-07-30T04:41:17;6.90;;;6.40;;
787;SDS011;16074;42.708;23.312;2023-07-30T04:43:53;7.40;;;6.90;;
787;SDS011;16074;42.708;23.312;2023-07-30T04:46:23;7.57;;;6.87;;
787;SDS011;16074;42.708;23.312;2023-07-30T04:48:52;7.00;;;6.30;;
787;SDS011;16074;42.708;23.312;2023-07-30T04:51:20;6.23;;;5.80;;
787;SDS011;16074;42.708;23.312;2023-07-30T04:53:49;7.20;;;6.17;;
787;SDS011;16074;42.708;23.312;2023-07-30T04:56:17;6.80;;;6.20;;
787;SDS011;16074;42.708;23.312;2023-07-30T04:58:45;6.90;;;6.40;;
787;SDS011;16074;42.708;23.312;2023-07-30T05:01:14;8.60;;;7.90;;
787;SDS011;16074;42.708;23.312;2023-07-30T05:03:43;7.70;;;7.10;;
787;SDS011;16074;42.708;23.312;2023-07-30T05:06:12;7.13;;;6.53;;
787;SDS011;16074;42.708;23.312;2023-07-30T05:08:40;7.63;;;6.93;;
787;SDS011;16074;42.708;23.312;2023-07-30T05:11:08;8.20;;;7.50;;
787;SDS011;16074;42.708;23.312;2023-07-30T05:13:37;8.73;;;8.03;;
787;SDS011;16074;42.708;23.312;2023-07-30T05:16:05;8.20;;;7.60;;
787;SDS011;16074;42.708;23.312;2023-07-30T05:18:33;9.33;;;8.33;;
787;SDS011;16074;42.708;23.312;2023-07-30T05:21:03;8.70;;;8.10;;
787;SDS011;16074;42.708;23.312;2023-07-30T05:23:31;8.67;;;7.80;;
787;SDS011;16074;42.708;23.312;2023-07-30T05:26:00;9.53;;;8.83;;
787;SDS011;16074;42.708;23.312;2023-07-30T05:28:28;8.63;;;7.87;;
787;SDS011;16074;42.708;23.312;2023-07-30T05:30:56;8.43;;;7.83;;
787;SDS011;16074;42.708;23.312;2023-07-30T05:33:25;9.93;;;9.03;;
787;SDS011;16074;42.708;23.312;2023-07-30T05:35:53;8.23;;;7.63;;
787;SDS011;16074;42.708;23.312;2023-07-30T05:38:23;8.30;;;7.70;;
787;SDS011;16074;42.708;23.312;2023-07-30T05:40:51;8.47;;;7.60;;
787;SDS011;16074;42.708;23.312;2023-07-30T05:43:19;9.30;;;8.50;;
787;SDS011;16074;42.708;23.312;2023-07-30T05:45:47;8.20;;;7.67;;
787;SDS011;16074;42.708;23.312;2023-07-30T05:48:16;8.50;;;7.90;;
787;SDS011;16074;42.708;23.312;2023-07-30T05:50:44;7.70;;;7.10;;
787;SDS011;16074;42.708;23.312;2023-07-30T05:53:13;9.27;;;8.47;;
787;SDS011;16074;42.708;23.312;2023-07-30T05:55:43;8.90;;;8.20;;
787;SDS011;16074;42.708;23.312;2023-07-30T05:58:11;10.07;;;8.97;;
787;SDS011;16074;42.708;23.312;2023-07-30T06:00:39;8.23;;;7.50;;
787;SDS011;16074;42.708;23.312;2023-07-30T06:03:08;9.13;;;8.23;;
787;SDS011;16074;42.708;23.312;2023-07-30T06:05:38;8.17;;;7.47;;
787;SDS011;16074;42.708;23.312;2023-07-30T06:08:07;7.53;;;6.93;;
787;SDS011;16074;42.708;23.312;2023-07-30T06:10:36;8.67;;;7.80;;
787;SDS011;16074;42.708;23.312;2023-07-30T06:13:06;9.40;;;8.50;;
787;SDS011;16074;42.708;23.312;2023-07-30T06:15:34;7.33;;;6.93;;
787;SDS011;16074;42.708;23.312;2023-07-30T06:18:03;8.30;;;7.50;;
787;SDS011;16074;42.708;23.312;2023-07-30T06:20:31;8.57;;;7.80;;
787;SDS011;16074;42.708;23.312;2023-07-30T06:22:59;9.50;;;8.60;;
787;SDS011;16074;42.708;23.312;2023-07-30T06:25:27;8.53;;;7.83;;
787;SDS011;16074;42.708;23.312;2023-07-30T06:27:56;8.53;;;7.73;;
787;SDS011;16074;42.708;23.312;2023-07-30T06:30:26;8.20;;;7.47;;
787;SDS011;16074;42.708;23.312;2023-07-30T06:32:55;7.80;;;7.10;;
787;SDS011;16074;42.708;23.312;2023-07-30T06:35:23;9.00;;;8.30;;
787;SDS011;16074;42.708;23.312;2023-07-30T06:37:51;10.43;;;7.80;;
787;SDS011;16074;42.708;23.312;2023-07-30T06:40:19;9.10;;;8.20;;
787;SDS011;16074;42.708;23.312;2023-07-30T06:42:48;8.43;;;7.73;;
787;SDS011;16074;42.708;23.312;2023-07-30T06:45:16;8.30;;;7.60;;
787;SDS011;16074;42.708;23.312;2023-07-30T06:47:46;7.80;;;7.20;;
787;SDS011;16074;42.708;23.312;2023-07-30T06:50:14;7.13;;;6.70;;
787;SDS011;16074;42.708;23.312;2023-07-30T06:52:42;7.67;;;6.97;;
787;SDS011;16074;42.708;23.312;2023-07-30T06:55:11;7.57;;;6.87;;
787;SDS011;16074;42.708;23.312;2023-07-30T06:57:39;9.60;;;7.80;;
787;SDS011;16074;42.708;23.312;2023-07-30T07:00:07;7.53;;;6.83;;
787;SDS011;16074;42.708;23.312;2023-07-30T07:02:36;7.43;;;6.83;;
787;SDS011;16074;42.708;23.312;2023-07-30T07:05:06;7.37;;;6.87;;
787;SDS011;16074;42.708;23.312;2023-07-30T07:07:34;9.00;;;6.73;;
787;SDS011;16074;42.708;23.312;2023-07-30T07:10:03;6.93;;;6.43;;
787;SDS011;16074;42.708;23.312;2023-07-30T07:12:32;6.30;;;5.90;;
787;SDS011;16074;42.708;23.312;2023-07-30T07:15:00;7.73;;;6.57;;
787;SDS011;16074;42.708;23.312;2023-07-30T07:17:28;7.43;;;6.93;;
787;SDS011;16074;42.708;23.312;2023-07-30T07:19:57;7.77;;;7.17;;
787;SDS011;16074;42.708;23.312;2023-07-30T07:22:26;8.90;;;6.73;;
787;SDS011;16074;42.708;23.312;2023-07-30T07:24:55;14.70;;;7.30;;
787;SDS011;16074;42.708;23.312;2023-07-30T07:27:23;7.37;;;6.70;;
787;SDS011;16074;42.708;23.312;2023-07-30T07:29:51;6.90;;;6.47;;
787;SDS011;16074;42.708;23.312;2023-07-30T07:32:20;7.70;;;7.00;;
787;SDS011;16074;42.708;23.312;2023-07-30T07:34:49;7.50;;;6.93;;
787;SDS011;16074;42.708;23.312;2023-07-30T07:37:17;7.97;;;7.13;;
787;SDS011;16074;42.708;23.312;2023-07-30T07:39:48;8.23;;;7.00;;
787;SDS011;16074;42.708;23.312;2023-07-30T07:42:16;6.77;;;6.17;;
787;SDS011;16074;42.708;23.312;2023-07-30T07:44:45;6.67;;;6.20;;
787;SDS011;16074;42.708;23.312;2023-07-30T07:47:13;8.50;;;6.43;;
787;SDS011;16074;42.708;23.312;2023-07-30T07:49:42;7.30;;;6.80;;
787;SDS011;16074;42.708;23.312;2023-07-30T07:52:10;6.70;;;6.27;;
787;SDS011;16074;42.708;23.312;2023-07-30T07:54:38;6.90;;;6.40;;
787;SDS011;16074;42.708;23.312;2023-07-30T07:57:10;6.37;;;5.87;;
787;SDS011;16074;42.708;23.312;2023-07-30T07:59:38;6.20;;;5.70;;
787;SDS011;16074;42.708;23.312;2023-07-30T08:02:08;6.17;;;5.80;;
787;SDS011;16074;42.708;23.312;2023-07-30T08:04:36;6.57;;;6.10;;
787;SDS011;16074;42.708;23.312;2023-07-30T08:07:05;6.03;;;5.73;;
787;SDS011;16074;42.708;23.312;2023-07-30T08:09:33;6.33;;;5.93;;
787;SDS011;16074;42.708;23.312;2023-07-30T08:12:01;6.63;;;6.13;;
787;SDS011;16074;42.708;23.312;2023-07-30T08:14:31;6.30;;;5.97;;
787;SDS011;16074;42.708;23.312;2023-07-30T08:17:00;6.77;;;6.27;;
787;SDS011;16074;42.708;23.312;2023-07-30T08:19:29;6.10;;;5.70;;
787;SDS011;16074;42.708;23.312;2023-07-30T08:21:57;6.67;;;6.13;;
787;SDS011;16074;42.708;23.312;2023-07-30T08:24:26;6.67;;;6.10;;
787;SDS011;16074;42.708;23.312;2023-07-30T08:26:54;7.57;;;6.83;;
787;SDS011;16074;42.708;23.312;2023-07-30T08:29:22;6.80;;;6.50;;
787;SDS011;16074;42.708;23.312;2023-07-30T08:31:52;10.70;;;7.63;;
787;SDS011;16074;42.708;23.312;2023-07-30T08:34:21;9.63;;;8.83;;
787;SDS011;16074;42.708;23.312;2023-07-30T08:36:49;11.83;;;11.13;;
787;SDS011;16074;42.708;23.312;2023-07-30T08:39:18;11.40;;;10.60;;
787;SDS011;16074;42.708;23.312;2023-07-30T08:41:46;10.60;;;9.60;;
787;SDS011;16074;42.708;23.312;2023-07-30T08:44:14;12.03;;;11.13;;
787;SDS011;16074;42.708;23.312;2023-07-30T08:46:42;8.93;;;8.40;;
787;SDS011;16074;42.708;23.312;2023-07-30T08:49:12;8.70;;;8.10;;
787;SDS011;16074;42.708;23.312;2023-07-30T08:51:40;10.83;;;10.00;;
787;SDS011;16074;42.708;23.312;2023-07-30T08:54:10;7.67;;;7.17;;
787;SDS011;16074;42.708;23.312;2023-07-30T08:56:42;7.17;;;6.73;;
787;SDS011;16074;42.708;23.312;2023-07-30T08:59:10;8.10;;;7.53;;
787;SDS011;16074;42.708;23.312;2023-07-30T09:01:40;8.50;;;7.73;;
787;SDS011;16074;42.708;23.312;2023-07-30T09:04:13;6.87;;;6.47;;
787;SDS011;16074;42.708;23.312;2023-07-30T09:06:47;7.47;;;6.97;;
787;SDS011;16074;42.708;23.312;2023-07-30T09:09:19;6.80;;;6.40;;
787;SDS011;16074;42.708;23.312;2023-07-30T09:11:50;7.27;;;6.87;;
787;SDS011;16074;42.708;23.312;2023-07-30T09:14:20;7.37;;;6.97;;
787;SDS011;16074;42.708;23.312;2023-07-30T09:16:51;7.73;;;7.03;;
787;SDS011;16074;42.708;23.312;2023-07-30T09:19:25;6.67;;;6.27;;
787;SDS011;16074;42.708;23.312;2023-07-30T09:21:54;6.90;;;6.40;;
787;SDS011;16074;42.708;23.312;2023-07-30T09:24:22;7.20;;;6.60;;
787;SDS011;16074;42.708;23.312;2023-07-30T09:26:51;7.37;;;6.87;;
787;SDS011;16074;42.708;23.312;2023-07-30T09:29:19;7.00;;;6.60;;
787;SDS011;16074;42.708;23.312;2023-07-30T09:31:48;6.00;;;5.70;;
787;SDS011;16074;42.708;23.312;2023-07-30T09:34:21;6.00;;;5.60;;
787;SDS011;16074;42.708;23.312;2023-07-30T09:36:53;5.57;;;5.27;;
787;SDS011;16074;42.708;23.312;2023-07-30T09:39:22;5.90;;;5.50;;
787;SDS011;16074;42.708;23.312;2023-07-30T09:41:52;4.93;;;4.63;;
787;SDS011;16074;42.708;23.312;2023-07-30T09:44:27;5.90;;;5.50;;
787;SDS011;16074;42.708;23.312;2023-07-30T09:46:55;5.70;;;5.40;;
787;SDS011;16074;42.708;23.312;2023-07-30T09:49:24;5.57;;;5.17;;
787;SDS011;16074;42.708;23.312;2023-07-30T09:51:54;5.63;;;5.30;;
787;SDS011;16074;42.708;23.312;2023-07-30T09:54:22;6.03;;;5.73;;
787;SDS011;16074;42.708;23.312;2023-07-30T09:56:51;5.40;;;5.10;;
787;SDS011;16074;42.708;23.312;2023-07-30T09:59:19;6.00;;;5.70;;
787;SDS011;16074;42.708;23.312;2023-07-30T10:01:48;6.23;;;5.73;;
787;SDS011;16074;42.708;23.312;2023-07-30T10:04:18;6.20;;;5.90;;
787;SDS011;16074;42.708;23.312;2023-07-30T10:06:49;7.17;;;6.77;;
787;SDS011;16074;42.708;23.312;2023-07-30T10:09:22;5.53;;;5.23;;
787;SDS011;16074;42.708;23.312;2023-07-30T10:11:53;5.70;;;5.40;;
787;SDS011;16074;42.708;23.312;2023-07-30T10:14:22;6.60;;;6.10;;
787;SDS011;16074;42.708;23.312;2023-07-30T10:16:52;6.47;;;6.17;;
787;SDS011;16074;42.708;23.312;2023-07-30T10:19:22;6.33;;;5.83;;
787;SDS011;16074;42.708;23.312;2023-07-30T10:21:53;5.97;;;5.67;;
787;SDS011;16074;42.708;23.312;2023-07-30T10:24:25;6.77;;;6.37;;
787;SDS011;16074;42.708;23.312;2023-07-30T10:26:54;6.30;;;5.90;;
787;SDS011;16074;42.708;23.312;2023-07-30T10:29:24;6.30;;;6.00;;
787;SDS011;16074;42.708;23.312;2023-07-30T10:31:53;5.93;;;5.57;;
787;SDS011;16074;42.708;23.312;2023-07-30T10:34:25;6.23;;;5.93;;
787;SDS011;16074;42.708;23.312;2023-07-30T10:36:55;6.73;;;6.40;;
787;SDS011;16074;42.708;23.312;2023-07-30T10:39:26;6.30;;;5.90;;
787;SDS011;16074;42.708;23.312;2023-07-30T10:41:56;7.00;;;6.60;;
787;SDS011;16074;42.708;23.312;2023-07-30T10:44:30;5.63;;;5.33;;
787;SDS011;16074;42.708;23.312;2023-07-30T10:47:00;5.70;;;5.40;;
787;SDS011;16074;42.708;23.312;2023-07-30T10:49:30;6.30;;;6.00;;
787;SDS011;16074;42.708;23.312;2023-07-30T10:52:04;6.37;;;5.97;;
787;SDS011;16074;42.708;23.312;2023-07-30T10:54:34;6.10;;;5.70;;
787;SDS011;16074;42.708;23.312;2023-07-30T10:57:03;5.87;;;5.60;;
787;SDS011;16074;42.708;23.312;2023-07-30T10:59:33;6.53;;;6.13;;
787;SDS011;16074;42.708;23.312;2023-07-30T11:02:03;6.80;;;6.40;;
787;SDS011;16074;42.708;23.312;2023-07-30T11:04:33;6.70;;;6.30;;
787;SDS011;16074;42.708;23.312;2023-07-30T11:07:02;6.53;;;6.13;;
787;SDS011;16074;42.708;23.312;2023-07-30T11:09:31;6.07;;;5.77;;
787;SDS011;16074;42.708;23.312;2023-07-30T11:12:01;7.10;;;6.70;;
787;SDS011;16074;42.708;23.312;2023-07-30T11:14:29;6.67;;;6.37;;
787;SDS011;16074;42.708;23.312;2023-07-30T11:16:58;7.40;;;7.00;;
787;SDS011;16074;42.708;23.312;2023-07-30T11:19:27;6.70;;;6.30;;
787;SDS011;16074;42.708;23.312;2023-07-30T11:21:57;6.97;;;6.57;;
787;SDS011;16074;42.708;23.312;2023-07-30T11:24:33;6.87;;;6.37;;
787;SDS011;16074;42.708;23.312;2023-07-30T11:27:03;6.93;;;6.63;;
787;SDS011;16074;42.708;23.312;2023-07-30T11:29:32;7.60;;;7.20;;
787;SDS011;16074;42.708;23.312;2023-07-30T11:32:00;7.30;;;6.80;;
787;SDS011;16074;42.708;23.312;2023-07-30T11:34:30;8.27;;;7.67;;
787;SDS011;16074;42.708;23.312;2023-07-30T11:37:02;6.80;;;6.50;;
787;SDS011;16074;42.708;23.312;2023-07-30T11:39:32;7.80;;;7.30;;
787;SDS011;16074;42.708;23.312;2023-07-30T11:42:00;7.70;;;7.30;;
787;SDS011;16074;42.708;23.312;2023-07-30T11:44:30;8.10;;;7.60;;
787;SDS011;16074;42.708;23.312;2023-07-30T11:46:59;8.20;;;7.70;;
787;SDS011;16074;42.708;23.312;2023-07-30T11:49:28;7.67;;;7.20;;
787;SDS011;16074;42.708;23.312;2023-07-30T11:52:03;7.50;;;7.10;;
787;SDS011;16074;42.708;23.312;2023-07-30T11:54:33;7.80;;;7.40;;
787;SDS011;16074;42.708;23.312;2023-07-30T11:57:02;7.80;;;7.40;;
787;SDS011;16074;42.708;23.312;2023-07-30T11:59:31;7.87;;;7.37;;
787;SDS011;16074;42.708;23.312;2023-07-30T12:02:00;6.50;;;6.20;;
787;SDS011;16074;42.708;23.312;2023-07-30T12:04:30;7.00;;;6.60;;
787;SDS011;16074;42.708;23.312;2023-07-30T12:06:59;7.40;;;7.00;;
787;SDS011;16074;42.708;23.312;2023-07-30T12:09:28;7.90;;;7.20;;
787;SDS011;16074;42.708;23.312;2023-07-30T12:12:06;7.27;;;6.77;;
787;SDS011;16074;42.708;23.312;2023-07-30T12:14:43;7.20;;;6.87;;
787;SDS011;16074;42.708;23.312;2023-07-30T12:17:12;6.83;;;6.53;;
787;SDS011;16074;42.708;23.312;2023-07-30T12:19:40;7.33;;;6.93;;
787;SDS011;16074;42.708;23.312;2023-07-30T12:22:09;7.37;;;7.07;;
787;SDS011;16074;42.708;23.312;2023-07-30T12:24:37;7.03;;;6.53;;
787;SDS011;16074;42.708;23.312;2023-07-30T12:27:07;6.83;;;6.43;;
787;SDS011;16074;42.708;23.312;2023-07-30T12:29:35;7.03;;;6.60;;
787;SDS011;16074;42.708;23.312;2023-07-30T12:32:03;7.60;;;7.10;;
787;SDS011;16074;42.708;23.312;2023-07-30T12:34:32;6.50;;;6.10;;
787;SDS011;16074;42.708;23.312;2023-07-30T12:37:00;7.80;;;7.30;;
787;SDS011;16074;42.708;23.312;2023-07-30T12:39:28;7.20;;;6.90;;
787;SDS011;16074;42.708;23.312;2023-07-30T12:41:57;7.70;;;7.20;;
787;SDS011;16074;42.708;23.312;2023-07-30T12:44:27;6.37;;;6.07;;
787;SDS011;16074;42.708;23.312;2023-07-30T12:46:55;6.87;;;6.47;;
787;SDS011;16074;42.708;23.312;2023-07-30T12:49:23;7.80;;;7.20;;
787;SDS011;16074;42.708;23.312;2023-07-30T12:51:51;7.60;;;7.20;;
787;SDS011;16074;42.708;23.312;2023-07-30T12:54:20;8.53;;;7.87;;
787;SDS011;16074;42.708;23.312;2023-07-30T12:56:48;7.20;;;6.80;;
787;SDS011;16074;42.708;23.312;2023-07-30T12:59:16;7.30;;;6.90;;
787;SDS011;16074;42.708;23.312;2023-07-30T13:01:46;7.63;;;7.23;;
787;SDS011;16074;42.708;23.312;2023-07-30T13:04:15;7.73;;;7.33;;
787;SDS011;16074;42.708;23.312;2023-07-30T13:06:43;7.43;;;7.03;;
787;SDS011;16074;42.708;23.312;2023-07-30T13:09:11;7.70;;;7.30;;
787;SDS011;16074;42.708;23.312;2023-07-30T13:11:40;7.83;;;7.43;;
787;SDS011;16074;42.708;23.312;2023-07-30T13:14:08;8.10;;;7.70;;
787;SDS011;16074;42.708;23.312;2023-07-30T13:16:36;8.40;;;7.70;;
787;SDS011;16074;42.708;23.312;2023-07-30T13:19:06;8.20;;;7.80;;
787;SDS011;16074;42.708;23.312;2023-07-30T13:21:34;8.87;;;8.27;;
787;SDS011;16074;42.708;23.312;2023-07-30T13:24:03;9.43;;;8.50;;
787;SDS011;16074;42.708;23.312;2023-07-30T13:26:32;8.10;;;7.50;;
787;SDS011;16074;42.708;23.312;2023-07-30T13:29:00;8.00;;;7.40;;
787;SDS011;16074;42.708;23.312;2023-07-30T13:31:28;8.20;;;7.67;;
787;SDS011;16074;42.708;23.312;2023-07-30T13:33:57;8.40;;;7.80;;
787;SDS011;16074;42.708;23.312;2023-07-30T13:36:27;8.60;;;8.10;;
787;SDS011;16074;42.708;23.312;2023-07-30T13:38:55;8.67;;;8.17;;
787;SDS011;16074;42.708;23.312;2023-07-30T13:41:23;8.20;;;7.73;;
787;SDS011;16074;42.708;23.312;2023-07-30T13:43:52;8.10;;;7.60;;
787;SDS011;16074;42.708;23.312;2023-07-30T13:46:20;9.43;;;8.93;;
787;SDS011;16074;42.708;23.312;2023-07-30T13:48:49;8.43;;;7.93;;
787;SDS011;16074;42.708;23.312;2023-07-30T13:51:17;9.40;;;8.70;;
787;SDS011;16074;42.708;23.312;2023-07-30T13:53:47;9.37;;;8.87;;
787;SDS011;16074;42.708;23.312;2023-07-30T13:56:15;7.90;;;7.50;;
787;SDS011;16074;42.708;23.312;2023-07-30T13:58:43;9.10;;;8.60;;
787;SDS011;16074;42.708;23.312;2023-07-30T14:01:12;8.43;;;7.73;;
787;SDS011;16074;42.708;23.312;2023-07-30T14:03:42;8.70;;;8.20;;
787;SDS011;16074;42.708;23.312;2023-07-30T14:06:11;8.47;;;7.87;;
787;SDS011;16074;42.708;23.312;2023-07-30T14:08:40;7.80;;;7.30;;
787;SDS011;16074;42.708;23.312;2023-07-30T14:11:09;7.90;;;7.50;;
787;SDS011;16074;42.708;23.312;2023-07-30T14:13:38;7.70;;;7.10;;
787;SDS011;16074;42.708;23.312;2023-07-30T14:16:06;7.40;;;7.00;;
787;SDS011;16074;42.708;23.312;2023-07-30T14:18:35;8.90;;;8.20;;
787;SDS011;16074;42.708;23.312;2023-07-30T14:21:04;8.77;;;8.30;;
787;SDS011;16074;42.708;23.312;2023-07-30T14:23:33;8.23;;;7.83;;
787;SDS011;16074;42.708;23.312;2023-07-30T14:26:01;9.23;;;8.70;;
787;SDS011;16074;42.708;23.312;2023-07-30T14:28:32;8.07;;;7.57;;
787;SDS011;16074;42.708;23.312;2023-07-30T14:31:00;8.07;;;7.47;;
787;SDS011;16074;42.708;23.312;2023-07-30T14:33:28;8.37;;;7.87;;
787;SDS011;16074;42.708;23.312;2023-07-30T14:35:57;8.03;;;7.60;;
787;SDS011;16074;42.708;23.312;2023-07-30T14:38:25;8.23;;;7.73;;
787;SDS011;16074;42.708;23.312;2023-07-30T14:40:53;10.10;;;9.40;;
787;SDS011;16074;42.708;23.312;2023-07-30T14:43:22;9.57;;;8.97;;
787;SDS011;16074;42.708;23.312;2023-07-30T14:45:51;7.13;;;6.73;;
787;SDS011;16074;42.708;23.312;2023-07-30T14:48:20;8.67;;;7.97;;
787;SDS011;16074;42.708;23.312;2023-07-30T14:50:49;8.03;;;7.53;;
787;SDS011;16074;42.708;23.312;2023-07-30T14:53:18;8.53;;;7.43;;
787;SDS011;16074;42.708;23.312;2023-07-30T14:55:46;7.53;;;7.10;;
787;SDS011;16074;42.708;23.312;2023-07-30T14:58:14;8.03;;;7.43;;
787;SDS011;16074;42.708;23.312;2023-07-30T15:00:42;8.10;;;7.30;;
787;SDS011;16074;42.708;23.312;2023-07-30T15:03:12;8.83;;;8.13;;
787;SDS011;16074;42.708;23.312;2023-07-30T15:05:40;8.30;;;7.80;;
787;SDS011;16074;42.708;23.312;2023-07-30T15:08:09;7.50;;;7.10;;
787;SDS011;16074;42.708;23.312;2023-07-30T15:10:37;9.00;;;8.40;;